createdAt,value
2018-06-09T00:01:13.454Z,43.20
2018-06-09T00:03:41.946Z,43.10
2018-06-09T00:06:10.319Z,43.10
2018-06-09T00:08:38.679Z,43.70
2018-06-09T00:11:07.125Z,43.10
2018-06-09T00:13:35.507Z,43.10
2018-06-09T00:16:03.858Z,43.10
2018-06-09T00:18:32.220Z,43.10
2018-06-09T00:21:00.678Z,43.10
2018-06-09T00:23:29.131Z,43.80
2018-06-09T00:25:57.557Z,43.20
2018-06-09T00:28:25.979Z,43.50
2018-06-09T00:30:54.359Z,44.20
2018-06-09T00:33:22.722Z,43.30
2018-06-09T00:35:51.143Z,43.20
2018-06-09T00:38:19.519Z,43.20
2018-06-09T00:40:47.896Z,43.20
2018-06-09T00:43:16.349Z,43.30
2018-06-09T00:45:44.747Z,43.30
2018-06-09T00:48:13.091Z,43.20
2018-06-09T00:50:41.496Z,43.20
2018-06-09T00:53:09.877Z,43.80
2018-06-09T00:55:38.267Z,43.20
2018-06-09T00:58:06.803Z,43.10
2018-06-09T01:00:35.261Z,43.10
2018-06-09T01:03:03.655Z,43.00
2018-06-09T01:05:32.080Z,43.00
2018-06-09T01:08:00.469Z,43.00
2018-06-09T01:10:28.835Z,43.00
2018-06-09T01:12:57.197Z,43.10
2018-06-09T01:15:25.601Z,44.50
2018-06-09T01:17:53.956Z,43.00
2018-06-09T01:20:22.939Z,43.10
2018-06-09T01:22:51.304Z,43.10
2018-06-09T01:25:19.987Z,43.10
2018-06-09T01:27:48.414Z,43.10
2018-06-09T01:30:16.759Z,43.10
2018-06-09T01:32:45.093Z,43.10
2018-06-09T01:37:41.559Z,43.10
2018-06-09T01:40:09.914Z,43.10
2018-06-09T01:47:34.531Z,43.10
2018-06-09T01:50:03.026Z,43.50
2018-06-09T01:52:31.421Z,43.10
2018-06-09T01:54:59.782Z,43.90
2018-06-09T01:57:28.207Z,43.10
2018-06-09T01:59:56.559Z,43.10
2018-06-09T02:02:24.862Z,43.10
2018-06-09T02:04:53.218Z,43.10
2018-06-09T02:07:21.576Z,43.10
2018-06-09T02:09:50.056Z,43.00
2018-06-09T02:12:18.417Z,42.90
2018-06-09T02:14:46.871Z,42.90
2018-06-09T02:17:15.232Z,42.90
2018-06-09T02:19:43.616Z,43.00
2018-06-09T02:22:11.988Z,43.60
2018-06-09T02:24:40.429Z,42.90
2018-06-09T02:27:08.782Z,42.90
2018-06-09T02:29:37.176Z,43.50
2018-06-09T02:32:05.574Z,42.90
2018-06-09T02:34:34.112Z,42.90
2018-06-09T02:37:02.496Z,42.90
2018-06-09T02:39:30.836Z,42.90
2018-06-09T02:41:59.172Z,42.90
2018-06-09T02:44:27.659Z,42.90
2018-06-09T02:46:55.996Z,42.90
2018-06-09T02:49:24.373Z,42.90
2018-06-09T02:51:52.766Z,42.90
2018-06-09T02:54:21.377Z,42.80
2018-06-09T02:56:49.747Z,42.70
2018-06-09T02:59:18.211Z,42.70
2018-06-09T03:01:46.574Z,42.70
2018-06-09T03:04:14.936Z,42.70
2018-06-09T03:06:43.361Z,42.70
2018-06-09T03:09:11.829Z,42.80
2018-06-09T03:11:40.185Z,42.80
2018-06-09T03:14:08.675Z,42.80
2018-06-09T03:16:37.173Z,42.80
2018-06-09T03:19:05.660Z,42.90
2018-06-09T03:21:34.079Z,42.90
2018-06-09T03:24:02.602Z,42.90
2018-06-09T03:26:31.003Z,43.20
2018-06-09T03:28:59.473Z,42.90
2018-06-09T03:31:27.885Z,42.90
2018-06-09T03:33:56.269Z,42.90
2018-06-09T03:36:24.675Z,42.90
2018-06-09T03:38:53.018Z,42.80
2018-06-09T03:41:21.389Z,42.70
2018-06-09T03:43:49.797Z,42.70
2018-06-09T03:46:18.195Z,42.70
2018-06-09T03:48:46.636Z,42.70
2018-06-09T03:51:14.963Z,42.70
2018-06-09T03:53:43.371Z,42.70
2018-06-09T03:56:11.737Z,42.70
2018-06-09T03:58:40.117Z,42.70
2018-06-09T04:01:08.619Z,42.70
2018-06-09T04:03:37.200Z,42.80
2018-06-09T04:06:05.577Z,42.70
2018-06-09T04:08:33.925Z,42.70
2018-06-09T04:11:02.361Z,42.70
2018-06-09T04:15:58.799Z,42.70
2018-06-09T04:18:27.153Z,42.80
2018-06-09T04:20:55.537Z,42.90
2018-06-09T04:23:23.924Z,42.70
2018-06-09T04:25:52.337Z,42.70
2018-06-09T04:28:20.864Z,42.70
2018-06-09T04:30:49.205Z,42.70
2018-06-09T04:33:17.573Z,42.70
2018-06-09T04:35:45.931Z,42.70
2018-06-09T04:40:42.635Z,42.60
2018-06-09T04:43:11.669Z,42.60
2018-06-09T04:45:40.010Z,42.60
2018-06-09T04:48:08.374Z,42.70
2018-06-09T04:50:36.750Z,42.70
2018-06-09T04:53:05.286Z,43.10
2018-06-09T04:55:33.814Z,43.10
2018-06-09T04:58:02.178Z,43.60
2018-06-09T05:00:30.571Z,44.00
2018-06-09T05:02:58.934Z,44.40
2018-06-09T05:05:27.318Z,44.70
2018-06-09T05:07:55.760Z,44.70
2018-06-09T05:10:24.184Z,44.70
2018-06-09T05:12:52.594Z,45.10
2018-06-09T05:15:21.098Z,45.10
2018-06-09T05:17:49.525Z,44.80
2018-06-09T05:20:17.913Z,44.70
2018-06-09T05:22:46.394Z,44.70
2018-06-09T05:25:14.763Z,44.00
2018-06-09T05:27:43.178Z,44.00
2018-06-09T05:30:11.622Z,43.90
2018-06-09T05:32:41.146Z,44.40
2018-06-09T05:35:09.524Z,44.70
2018-06-09T05:37:38.080Z,44.80
2018-06-09T05:40:06.499Z,44.80
2018-06-09T05:42:34.822Z,44.80
2018-06-09T05:45:03.328Z,45.10
2018-06-09T05:47:31.670Z,45.20
2018-06-09T05:50:00.111Z,45.40
2018-06-09T05:52:28.650Z,45.30
2018-06-09T05:54:57.210Z,45.50
2018-06-09T05:57:25.684Z,46.00
2018-06-09T05:59:54.080Z,47.40
2018-06-09T06:02:22.570Z,47.00
2018-06-09T06:04:50.961Z,46.10
2018-06-09T06:07:19.364Z,46.30
2018-06-09T06:09:47.704Z,46.00
2018-06-09T06:12:16.046Z,45.60
2018-06-09T06:17:12.476Z,46.40
2018-06-09T06:19:41.026Z,46.50
2018-06-09T06:22:09.502Z,46.30
2018-06-09T06:24:37.897Z,45.90
2018-06-09T06:27:06.288Z,45.60
2018-06-09T06:29:34.734Z,45.70
2018-06-09T06:32:03.432Z,45.50
2018-06-09T06:34:31.832Z,46.00
2018-06-09T06:37:00.238Z,46.70
2018-06-09T06:39:28.686Z,46.90
2018-06-09T06:41:57.028Z,46.60
2018-06-09T06:44:25.630Z,46.30
2018-06-09T06:46:53.952Z,46.20
2018-06-09T06:49:22.424Z,46.70
2018-06-09T06:51:50.836Z,46.50
2018-06-09T06:54:19.210Z,46.80
2018-06-09T06:56:47.596Z,47.10
2018-06-09T06:59:15.956Z,46.50
2018-06-09T07:01:44.465Z,46.90
2018-06-09T07:04:12.826Z,47.10
2018-06-09T07:06:41.354Z,46.40
2018-06-09T07:09:09.768Z,46.50
2018-06-09T07:11:38.181Z,47.30
2018-06-09T07:14:06.549Z,47.50
2018-06-09T07:16:34.967Z,47.00
2018-06-09T07:19:03.521Z,46.60
2018-06-09T07:21:32.039Z,47.10
2018-06-09T07:24:00.460Z,47.00
2018-06-09T07:26:28.816Z,46.60
2018-06-09T07:28:57.185Z,46.90
2018-06-09T07:31:25.589Z,46.40
2018-06-09T07:33:53.972Z,46.50
2018-06-09T07:36:22.371Z,46.20
2018-06-09T07:38:50.729Z,46.10
2018-06-09T07:41:19.197Z,46.10
2018-06-09T07:43:47.603Z,45.70
2018-06-09T07:46:15.909Z,45.70
2018-06-09T07:48:44.283Z,46.00
2018-06-09T07:51:12.777Z,46.20
2018-06-09T07:53:41.165Z,45.30
2018-06-09T07:56:09.579Z,45.20
2018-06-09T07:58:37.968Z,44.50
2018-06-09T08:01:06.367Z,44.80
2018-06-09T08:03:34.928Z,45.10
2018-06-09T08:06:03.318Z,44.60
2018-06-09T08:08:31.661Z,44.10
2018-06-09T08:11:00.097Z,44.40
2018-06-09T08:13:28.511Z,44.60
2018-06-09T08:15:57.155Z,44.10
2018-06-09T08:18:25.559Z,44.30
2018-06-09T08:20:53.934Z,44.00
2018-06-09T08:23:22.300Z,44.00
2018-06-09T08:28:18.645Z,44.20
2018-06-09T08:30:46.972Z,44.60
2018-06-09T08:33:15.423Z,44.40
2018-06-09T08:35:43.917Z,44.90
2018-06-09T08:38:12.500Z,44.50
2018-06-09T08:40:40.858Z,44.70
2018-06-09T08:43:09.384Z,44.80
2018-06-09T08:45:37.726Z,44.70
2018-06-09T08:48:06.105Z,44.80
2018-06-09T08:50:34.480Z,45.10
2018-06-09T08:53:02.932Z,45.10
2018-06-09T08:55:31.433Z,44.50
2018-06-09T08:57:59.791Z,44.30
2018-06-09T09:00:28.181Z,44.60
2018-06-09T09:02:56.615Z,44.50
2018-06-09T09:05:25.003Z,44.10
2018-06-09T09:07:53.390Z,44.00
2018-06-09T09:10:21.749Z,44.70
2018-06-09T09:12:50.126Z,44.20
2018-06-09T09:15:18.698Z,43.70
2018-06-09T09:17:47.039Z,43.10
2018-06-09T09:20:15.411Z,44.30
2018-06-09T09:22:43.890Z,43.90
2018-06-09T09:25:12.227Z,43.70
2018-06-09T09:27:40.645Z,44.00
2018-06-09T09:30:09.034Z,44.50
2018-06-09T09:32:37.408Z,43.30
2018-06-09T09:35:05.807Z,43.20
2018-06-09T09:37:34.147Z,43.70
2018-06-09T09:40:02.549Z,44.30
2018-06-09T09:42:30.885Z,44.70
2018-06-09T09:44:59.287Z,44.90
2018-06-09T09:47:27.755Z,45.50
2018-06-09T09:49:56.169Z,45.80
2018-06-09T09:52:24.603Z,45.70
2018-06-09T09:54:53.048Z,43.30
2018-06-09T09:57:21.393Z,43.30
2018-06-09T09:59:49.776Z,43.30
2018-06-09T10:02:20.004Z,43.30
2018-06-09T10:04:48.461Z,43.30
2018-06-09T10:07:16.905Z,43.30
2018-06-09T10:09:45.285Z,43.30
2018-06-09T10:12:13.650Z,43.30
2018-06-09T10:14:42.129Z,43.30
2018-06-09T10:19:38.846Z,43.40
2018-06-09T10:22:07.289Z,43.40
2018-06-09T10:24:35.840Z,43.30
2018-06-09T10:27:04.390Z,43.30
2018-06-09T10:29:32.939Z,43.30
2018-06-09T10:32:01.392Z,43.40
2018-06-09T10:34:29.862Z,43.40
2018-06-09T10:36:58.374Z,43.30
2018-06-09T10:39:27.139Z,43.40
2018-06-09T10:41:56.456Z,42.90
2018-06-09T10:44:25.791Z,42.60
2018-06-09T10:46:54.337Z,43.40
2018-06-09T10:49:22.761Z,43.30
2018-06-09T10:51:51.159Z,42.50
2018-06-09T10:54:19.641Z,43.50
2018-06-09T10:56:48.087Z,43.10
2018-06-09T10:59:16.739Z,43.20
2018-06-09T11:01:45.189Z,42.20
2018-06-09T11:04:13.605Z,41.90
2018-06-09T11:06:42.181Z,43.10
2018-06-09T11:09:10.642Z,40.70
2018-06-09T11:11:39.085Z,40.00
2018-06-09T11:14:07.455Z,39.30
2018-06-09T11:16:35.855Z,39.60
2018-06-09T11:19:04.309Z,37.80
2018-06-09T11:21:32.910Z,38.60
2018-06-09T11:24:01.377Z,37.90
2018-06-09T11:26:30.012Z,37.90
2018-06-09T11:28:58.441Z,37.10
2018-06-09T11:31:26.937Z,36.60
2018-06-09T11:33:55.465Z,36.90
2018-06-09T11:36:23.942Z,37.40
2018-06-09T11:38:52.413Z,36.80
2018-06-09T11:41:20.841Z,36.20
2018-06-09T11:43:49.244Z,35.70
2018-06-09T11:46:17.649Z,36.80
2018-06-09T11:48:46.028Z,38.10
2018-06-09T11:51:14.441Z,38.10
2018-06-09T11:53:43.216Z,38.10
2018-06-09T11:56:11.778Z,38.10
2018-06-09T11:58:40.247Z,38.10
2018-06-09T12:01:08.723Z,38.40
2018-06-09T12:03:37.180Z,39.40
2018-06-09T12:06:06.347Z,39.50
2018-06-09T12:08:34.853Z,39.70
2018-06-09T12:11:03.330Z,39.80
2018-06-09T12:13:31.919Z,40.10
2018-06-09T12:16:00.431Z,40.90
2018-06-09T12:18:28.831Z,40.90
2018-06-09T12:20:57.264Z,40.60
2018-06-09T12:23:27.205Z,40.60
2018-06-09T12:25:55.587Z,40.80
2018-06-09T12:28:24.069Z,41.30
2018-06-09T12:30:52.373Z,41.70
2018-06-09T12:33:21.069Z,42.60
2018-06-09T12:35:49.462Z,42.90
2018-06-09T12:40:46.001Z,43.70
2018-06-09T12:45:42.848Z,43.50
2018-06-09T12:48:11.301Z,43.40
2018-06-09T12:50:39.707Z,43.70
2018-06-09T12:53:08.043Z,43.70
2018-06-09T12:55:36.460Z,43.70
2018-06-09T12:58:04.883Z,43.70
2018-06-09T13:00:33.327Z,43.80
2018-06-09T13:03:01.854Z,43.70
2018-06-09T13:05:30.344Z,43.80
2018-06-09T13:07:58.801Z,43.70
2018-06-09T13:10:27.220Z,43.80
2018-06-09T13:12:55.619Z,43.80
2018-06-09T13:15:24.039Z,44.40
2018-06-09T13:17:52.576Z,43.90
2018-06-09T13:20:21.065Z,43.70
2018-06-09T13:25:17.689Z,43.70
2018-06-09T13:27:46.169Z,43.70
2018-06-09T13:30:14.672Z,43.70
2018-06-09T13:32:43.089Z,43.70
2018-06-09T13:35:11.634Z,43.70
2018-06-09T13:37:40.017Z,43.70
2018-06-09T13:40:08.425Z,43.70
2018-06-09T13:42:36.807Z,43.70
2018-06-09T13:45:05.229Z,43.60
2018-06-09T13:47:33.551Z,43.60
2018-06-09T13:50:01.971Z,40.20
2018-06-09T13:52:30.311Z,39.70
2018-06-09T13:54:58.838Z,38.90
2018-06-09T13:57:27.586Z,39.00
2018-06-09T13:59:56.011Z,39.20
2018-06-09T14:02:24.357Z,39.50
2018-06-09T14:04:52.751Z,39.40
2018-06-09T14:07:21.271Z,40.30
2018-06-09T14:09:49.717Z,41.40
2018-06-09T14:12:18.103Z,41.80
2018-06-09T14:14:46.472Z,42.30
2018-06-09T14:17:14.943Z,42.50
2018-06-09T14:19:43.317Z,43.20
2018-06-09T14:22:11.729Z,43.30
2018-06-09T14:24:40.089Z,43.30
2018-06-09T14:27:08.570Z,43.30
2018-06-09T14:29:36.983Z,44.20
2018-06-09T14:32:05.527Z,44.40
2018-06-09T14:34:34.060Z,45.00
2018-06-09T14:37:02.570Z,44.80
2018-06-09T14:39:30.967Z,45.00
2018-06-09T14:41:59.345Z,44.50
2018-06-09T14:44:27.725Z,44.80
2018-06-09T14:46:56.250Z,45.10
2018-06-09T14:49:24.703Z,45.50
2018-06-09T14:51:53.173Z,45.90
2018-06-09T14:54:21.569Z,46.30
2018-06-09T14:56:50.030Z,46.50
2018-06-09T14:59:18.437Z,46.30
2018-06-09T15:01:46.805Z,46.70
2018-06-09T15:04:15.315Z,47.40
2018-06-09T15:06:43.755Z,47.60
2018-06-09T15:09:12.174Z,48.50
2018-06-09T15:11:40.640Z,47.20
2018-06-09T15:14:09.079Z,46.90
2018-06-09T15:16:37.694Z,46.80
2018-06-09T15:19:06.069Z,46.90
2018-06-09T15:21:34.444Z,46.10
2018-06-09T15:24:02.867Z,46.70
2018-06-09T15:26:31.407Z,46.10
2018-06-09T15:28:59.797Z,46.90
2018-06-09T15:31:28.198Z,46.20
2018-06-09T15:33:56.657Z,45.80
2018-06-09T15:36:25.077Z,45.90
2018-06-09T15:38:53.438Z,45.50
2018-06-09T15:41:21.953Z,46.10
2018-06-09T15:43:50.345Z,46.00
2018-06-09T15:48:46.969Z,47.20
2018-06-09T15:51:15.456Z,47.60
2018-06-09T15:53:43.999Z,47.20
2018-06-09T15:56:12.344Z,47.40
2018-06-09T15:58:40.708Z,47.60
2018-06-09T16:01:09.100Z,48.00
2018-06-09T16:03:37.486Z,47.90
2018-06-09T16:06:05.884Z,47.30
2018-06-09T16:08:34.393Z,48.40
2018-06-09T16:11:02.831Z,47.80
2018-06-09T16:13:31.224Z,47.70
2018-06-09T16:15:59.602Z,48.30
2018-06-09T16:18:28.025Z,49.00
2018-06-09T16:20:56.521Z,48.40
2018-06-09T16:23:24.954Z,48.90
2018-06-09T16:25:53.336Z,49.40
2018-06-09T16:28:21.714Z,48.50
2018-06-09T16:30:50.121Z,49.20
2018-06-09T16:33:18.674Z,48.60
2018-06-09T16:35:47.084Z,48.60
2018-06-09T16:38:15.438Z,50.60
2018-06-09T16:40:43.951Z,50.00
2018-06-09T16:43:12.335Z,50.10
2018-06-09T16:45:40.940Z,52.50
2018-06-09T16:48:09.358Z,49.90
2018-06-09T16:50:37.748Z,48.60
2018-06-09T16:53:06.199Z,48.60
2018-06-09T16:55:34.710Z,48.60
2018-06-09T16:58:03.167Z,48.60
2018-06-09T17:00:31.585Z,49.60
2018-06-09T17:03:00.030Z,52.30
2018-06-09T17:05:28.588Z,49.20
2018-06-09T17:07:57.148Z,50.10
2018-06-09T17:10:25.600Z,48.70
2018-06-09T17:12:54.006Z,48.60
2018-06-09T17:15:22.364Z,48.60
2018-06-09T17:17:50.770Z,46.70
2018-06-09T17:20:20.124Z,47.20
2018-06-09T17:22:48.567Z,47.80
2018-06-09T17:25:17.162Z,48.50
2018-06-09T17:27:45.589Z,48.50
2018-06-09T17:30:13.942Z,48.50
2018-06-09T17:32:42.332Z,49.10
2018-06-09T17:35:10.732Z,48.70
2018-06-09T17:37:39.322Z,48.40
2018-06-09T17:40:07.709Z,48.50
2018-06-09T17:42:36.123Z,48.50
2018-06-09T17:45:04.552Z,49.10
2018-06-09T17:47:32.972Z,48.50
2018-06-09T17:50:01.549Z,48.60
2018-06-09T17:52:29.994Z,48.60
2018-06-09T17:54:58.357Z,47.20
2018-06-09T17:57:26.837Z,47.90
2018-06-09T17:59:55.287Z,46.90
2018-06-09T18:02:23.964Z,46.70
2018-06-09T18:04:52.391Z,49.60
2018-06-09T18:07:20.799Z,50.00
2018-06-09T18:09:49.220Z,48.80
2018-06-09T18:12:17.784Z,48.80
2018-06-09T18:14:46.148Z,47.80
2018-06-09T18:17:14.683Z,46.60
2018-06-09T18:19:43.123Z,46.70
2018-06-09T18:22:11.515Z,45.60
2018-06-09T18:24:39.996Z,45.90
2018-06-09T18:27:08.466Z,45.70
2018-06-09T18:29:36.850Z,45.50
2018-06-09T18:32:05.425Z,45.20
2018-06-09T18:34:33.765Z,45.60
2018-06-09T18:37:02.209Z,45.20
2018-06-09T18:39:30.594Z,45.20
2018-06-09T18:41:58.988Z,45.80
2018-06-09T18:44:27.402Z,44.80
2018-06-09T18:46:55.829Z,44.90
2018-06-09T18:49:24.356Z,44.90
2018-06-09T18:51:52.737Z,45.00
2018-06-09T18:54:21.180Z,44.70
2018-06-09T18:56:50.709Z,44.20
2018-06-09T18:59:19.148Z,45.00
2018-06-09T19:01:47.519Z,44.90
2018-06-09T19:04:15.963Z,44.50
2018-06-09T19:06:44.355Z,43.70
2018-06-09T19:09:12.758Z,43.90
2018-06-09T19:11:41.155Z,44.00
2018-06-09T19:14:09.585Z,44.20
2018-06-09T19:16:38.047Z,44.70
2018-06-09T19:19:06.484Z,44.70
2018-06-09T19:21:34.924Z,44.90
2018-06-09T19:24:03.400Z,45.10
2018-06-09T19:26:31.864Z,45.00
2018-06-09T19:29:00.341Z,44.90
2018-06-09T19:31:28.943Z,45.10
2018-06-09T19:33:57.342Z,45.00
2018-06-09T19:36:25.735Z,45.20
2018-06-09T19:38:54.090Z,44.90
2018-06-09T19:41:22.589Z,46.60
2018-06-09T19:43:50.953Z,46.50
2018-06-09T19:46:19.423Z,45.90
2018-06-09T19:48:47.922Z,45.50
2018-06-09T19:51:16.383Z,45.50
2018-06-09T19:53:44.905Z,46.10
2018-06-09T19:56:13.284Z,46.20
2018-06-09T19:58:41.639Z,45.90
2018-06-09T20:01:10.180Z,46.60
2018-06-09T20:03:39.562Z,46.40
2018-06-09T20:06:07.947Z,46.50
2018-06-09T20:08:36.507Z,47.20
2018-06-09T20:11:04.892Z,47.50
2018-06-09T20:13:33.424Z,47.80
2018-06-09T20:16:01.876Z,48.10
2018-06-09T20:18:30.534Z,48.10
2018-06-09T20:21:00.207Z,47.80
2018-06-09T20:23:28.641Z,48.20
2018-06-09T20:25:57.230Z,48.10
2018-06-09T20:28:25.686Z,48.10
2018-06-09T20:30:54.068Z,48.00
2018-06-09T20:33:22.623Z,48.00
2018-06-09T20:35:51.028Z,48.00
2018-06-09T20:38:19.450Z,48.00
2018-06-09T20:40:47.922Z,48.10
2018-06-09T20:43:16.304Z,48.00
2018-06-09T20:45:44.802Z,48.10
2018-06-09T20:48:13.212Z,48.90
2018-06-09T20:50:48.324Z,48.60
2018-06-09T20:53:16.988Z,49.10
2018-06-09T20:55:45.408Z,49.30
2018-06-09T20:58:14.148Z,49.30
2018-06-09T21:00:42.654Z,49.90
2018-06-09T21:03:11.054Z,49.80
2018-06-09T21:05:39.603Z,49.20
2018-06-09T21:08:08.300Z,49.00
2018-06-09T21:10:36.686Z,49.00
2018-06-09T21:13:05.166Z,49.40
2018-06-09T21:15:33.643Z,49.30
2018-06-09T21:18:02.077Z,49.60
2018-06-09T21:20:30.440Z,50.00
2018-06-09T21:23:05.695Z,49.70
2018-06-09T21:25:34.139Z,49.50
2018-06-09T21:28:08.738Z,49.60
2018-06-09T21:30:42.752Z,49.50
2018-06-09T21:33:26.791Z,49.30
2018-06-09T21:36:02.201Z,49.00
2018-06-09T21:38:38.764Z,49.20
2018-06-09T21:41:12.414Z,50.10
2018-06-09T21:43:46.147Z,50.70
2018-06-09T21:46:20.119Z,49.80
2018-06-09T21:48:48.531Z,48.60
2018-06-09T21:51:16.908Z,48.70
2018-06-09T21:53:45.436Z,48.80
2018-06-09T21:56:13.861Z,48.90
2018-06-09T21:58:42.290Z,49.20
2018-06-09T22:01:10.763Z,49.30
2018-06-09T22:03:39.261Z,49.80
2018-06-09T22:08:35.829Z,49.10
2018-06-09T22:11:04.271Z,49.00
2018-06-09T22:13:32.852Z,49.80
2018-06-09T22:16:01.232Z,49.00
2018-06-09T22:18:29.642Z,47.90
2018-06-09T22:20:58.013Z,47.90
2018-06-09T22:23:26.308Z,48.30
2018-06-09T22:25:59.007Z,48.00
2018-06-09T22:28:27.935Z,48.00
2018-06-09T22:30:56.343Z,48.10
2018-06-09T22:33:24.824Z,49.80
2018-06-09T22:35:53.278Z,50.10
2018-06-09T22:38:21.669Z,50.30
2018-06-09T22:40:50.059Z,48.10
2018-06-09T22:45:46.537Z,48.20
2018-06-09T22:48:14.971Z,48.20
2018-06-09T22:50:43.399Z,48.10
2018-06-09T22:53:11.781Z,48.10
2018-06-09T22:55:40.320Z,48.10
2018-06-09T22:58:08.720Z,48.00
2018-06-09T23:00:53.230Z,48.00
2018-06-09T23:03:21.647Z,48.00
2018-06-09T23:05:49.999Z,48.60
2018-06-09T23:08:18.338Z,48.00
2018-06-09T23:10:46.867Z,48.00
2018-06-09T23:13:15.985Z,47.90
2018-06-09T23:15:44.463Z,47.60
2018-06-09T23:18:12.895Z,48.20
2018-06-09T23:20:41.336Z,47.80
2018-06-09T23:23:09.777Z,47.70
2018-06-09T23:25:38.355Z,48.20
2018-06-09T23:28:06.770Z,48.20
2018-06-09T23:30:35.302Z,48.20
2018-06-09T23:33:03.711Z,48.40
2018-06-09T23:35:32.139Z,48.40
2018-06-09T23:38:00.645Z,48.40
2018-06-09T23:40:29.291Z,48.70
2018-06-09T23:42:57.743Z,49.00
2018-06-09T23:47:54.465Z,49.30
2018-06-09T23:50:22.993Z,49.50
2018-06-09T23:52:51.477Z,49.20
2018-06-09T23:55:20.157Z,49.00
2018-06-09T23:57:49.166Z,49.20
